createdAt,value
2018-03-07T00:00:56.335Z,81.90
2018-03-07T00:03:24.400Z,82.30
2018-03-07T00:05:52.471Z,82.80
2018-03-07T00:08:20.535Z,83.00
2018-03-07T00:10:49.374Z,83.40
2018-03-07T00:13:17.469Z,83.30
2018-03-07T00:15:45.524Z,83.40
2018-03-07T00:18:13.609Z,82.70
2018-03-07T00:20:41.697Z,82.50
2018-03-07T00:23:09.796Z,82.50
2018-03-07T00:25:37.895Z,83.10
2018-03-07T00:28:06.002Z,83.40
2018-03-07T00:30:34.113Z,82.60
2018-03-07T00:33:02.981Z,81.60
2018-03-07T00:35:31.036Z,81.50
2018-03-07T00:37:59.113Z,81.20
2018-03-07T00:40:27.206Z,81.10
2018-03-07T00:42:55.273Z,81.00
2018-03-07T00:45:23.345Z,81.70
2018-03-07T00:47:51.413Z,81.70
2018-03-07T00:50:20.243Z,82.40
2018-03-07T00:52:48.375Z,81.60
2018-03-07T00:55:16.445Z,82.30
2018-03-07T00:57:44.532Z,82.30
2018-03-07T01:00:12.613Z,82.10
2018-03-07T01:02:40.675Z,82.10
2018-03-07T01:05:08.753Z,82.40
2018-03-07T01:07:36.828Z,82.50
2018-03-07T01:10:04.905Z,82.20
2018-03-07T01:12:32.981Z,82.20
2018-03-07T01:15:01.062Z,83.10
2018-03-07T01:17:29.897Z,83.30
2018-03-07T01:19:58.008Z,83.30
2018-03-07T01:22:26.056Z,83.50
2018-03-07T01:24:54.151Z,83.60
2018-03-07T01:27:22.223Z,83.70
2018-03-07T01:29:50.297Z,84.10
2018-03-07T01:32:18.373Z,84.40
2018-03-07T01:34:46.448Z,84.50
2018-03-07T01:37:15.291Z,84.40
2018-03-07T01:39:43.401Z,84.30
2018-03-07T01:42:11.468Z,84.30
2018-03-07T01:44:39.537Z,84.60
2018-03-07T01:47:07.641Z,84.90
2018-03-07T01:49:35.713Z,84.60
2018-03-07T01:52:03.780Z,84.40
2018-03-07T01:54:31.897Z,85.00
2018-03-07T01:56:59.951Z,85.20
2018-03-07T01:59:28.031Z,85.70
2018-03-07T02:01:56.110Z,85.60
2018-03-07T02:04:41.974Z,85.90
2018-03-07T02:07:11.068Z,85.60
2018-03-07T02:09:39.125Z,85.60
2018-03-07T02:12:07.308Z,85.30
2018-03-07T02:14:35.405Z,85.40
2018-03-07T02:17:03.484Z,85.00
2018-03-07T02:19:31.569Z,85.30
2018-03-07T02:21:59.635Z,85.50
2018-03-07T02:24:27.740Z,86.20
2018-03-07T02:26:55.817Z,86.60
2018-03-07T02:29:23.898Z,85.80
2018-03-07T02:31:51.969Z,85.70
2018-03-07T02:34:20.068Z,85.60
2018-03-07T02:36:48.174Z,86.20
2018-03-07T02:39:16.303Z,85.80
2018-03-07T02:41:44.363Z,85.90
2018-03-07T02:44:13.206Z,86.50
2018-03-07T02:46:41.313Z,86.40
2018-03-07T02:49:09.376Z,85.90
2018-03-07T02:51:37.477Z,85.60
2018-03-07T02:54:05.558Z,86.40
2018-03-07T02:56:33.648Z,86.30
2018-03-07T02:59:01.748Z,85.40
2018-03-07T03:01:29.816Z,85.10
2018-03-07T03:03:57.897Z,84.40
2018-03-07T03:06:25.986Z,84.20
2018-03-07T03:08:54.120Z,84.10
2018-03-07T03:11:22.228Z,84.70
2018-03-07T03:13:50.288Z,84.90
2018-03-07T03:16:18.385Z,85.40
2018-03-07T03:18:46.459Z,85.60
2018-03-07T03:21:14.535Z,85.30
2018-03-07T03:23:42.608Z,85.50
2018-03-07T03:26:11.425Z,87.50
2018-03-07T03:28:39.497Z,87.40
2018-03-07T03:31:07.554Z,86.90
2018-03-07T03:33:35.595Z,86.40
2018-03-07T03:36:03.679Z,85.90
2018-03-07T03:38:31.735Z,85.60
2018-03-07T03:40:59.812Z,85.90
2018-03-07T03:43:27.862Z,86.00
2018-03-07T03:45:55.926Z,85.90
2018-03-07T03:48:24.009Z,85.60
2018-03-07T03:50:52.064Z,85.10
2018-03-07T03:53:20.124Z,85.90
2018-03-07T03:55:48.185Z,85.80
2018-03-07T03:58:17.014Z,86.50
2018-03-07T04:00:45.087Z,87.70
2018-03-07T04:03:14.468Z,86.80
2018-03-07T04:05:42.540Z,86.80
2018-03-07T04:08:10.601Z,87.50
2018-03-07T04:10:38.672Z,87.50
2018-03-07T04:13:06.733Z,87.10
2018-03-07T04:15:35.565Z,88.10
2018-03-07T04:18:03.717Z,88.10
2018-03-07T04:20:32.523Z,87.10
2018-03-07T04:23:00.606Z,87.10
2018-03-07T04:25:29.451Z,87.20
2018-03-07T04:27:57.487Z,87.10
2018-03-07T04:30:26.313Z,88.90
2018-03-07T04:32:54.389Z,88.90
2018-03-07T04:35:22.460Z,89.10
2018-03-07T04:37:51.290Z,87.90
2018-03-07T04:40:19.353Z,87.90
2018-03-07T04:42:47.437Z,88.30
2018-03-07T04:45:15.494Z,88.20
2018-03-07T04:47:44.329Z,87.60
2018-03-07T04:50:12.399Z,87.40
2018-03-07T04:52:40.468Z,87.30
2018-03-07T04:55:09.306Z,87.90
2018-03-07T04:57:37.384Z,87.80
2018-03-07T05:00:05.457Z,87.60
2018-03-07T05:02:33.558Z,87.40
2018-03-07T05:05:01.616Z,87.50
2018-03-07T05:07:29.706Z,87.50
2018-03-07T05:09:57.827Z,87.80
2018-03-07T05:12:25.873Z,87.40
2018-03-07T05:14:53.949Z,87.60
2018-03-07T05:17:22.793Z,87.50
2018-03-07T05:19:50.855Z,87.40
2018-03-07T05:22:18.916Z,87.90
2018-03-07T05:24:46.973Z,87.70
2018-03-07T05:27:15.068Z,87.20
2018-03-07T05:29:43.133Z,88.00
2018-03-07T05:32:11.204Z,87.80
2018-03-07T05:34:39.260Z,87.70
2018-03-07T05:37:07.345Z,87.90
2018-03-07T05:39:35.406Z,87.70
2018-03-07T05:42:03.481Z,87.90
2018-03-07T05:44:32.311Z,87.60
2018-03-07T05:47:00.367Z,87.60
2018-03-07T05:49:29.203Z,87.50
2018-03-07T05:51:57.256Z,87.50
2018-03-07T05:54:25.337Z,87.50
2018-03-07T05:56:53.414Z,87.30
2018-03-07T05:59:22.276Z,87.50
2018-03-07T06:01:50.309Z,87.40
2018-03-07T06:04:18.398Z,87.40
2018-03-07T06:06:46.449Z,87.50
2018-03-07T06:09:14.520Z,87.50
2018-03-07T06:11:42.580Z,87.00
2018-03-07T06:14:11.499Z,87.80
2018-03-07T06:16:39.547Z,87.60
2018-03-07T06:19:07.613Z,87.80
2018-03-07T06:21:35.664Z,89.20
2018-03-07T06:24:03.732Z,90.00
2018-03-07T06:26:31.780Z,90.00
2018-03-07T06:28:59.841Z,90.00
2018-03-07T06:31:27.900Z,90.00
2018-03-07T06:33:55.960Z,90.00
2018-03-07T06:36:24.059Z,90.10
2018-03-07T06:38:52.127Z,90.10
2018-03-07T06:41:20.169Z,90.40
2018-03-07T06:43:48.246Z,90.10
2018-03-07T06:46:16.329Z,89.90
2018-03-07T06:48:44.401Z,90.10
2018-03-07T06:51:13.221Z,89.70
2018-03-07T06:53:41.292Z,89.60
2018-03-07T06:56:09.345Z,89.30
2018-03-07T06:58:37.416Z,89.20
2018-03-07T07:01:05.452Z,89.40
2018-03-07T07:03:33.521Z,89.70
2018-03-07T07:06:02.345Z,88.90
2018-03-07T07:08:30.434Z,88.90
2018-03-07T07:10:58.497Z,88.30
2018-03-07T07:13:26.536Z,87.80
2018-03-07T07:15:54.590Z,87.20
2018-03-07T07:18:22.638Z,85.90
2018-03-07T07:20:50.777Z,85.60
2018-03-07T07:23:18.816Z,84.40
2018-03-07T07:25:46.867Z,83.40
2018-03-07T07:28:14.912Z,82.40
2018-03-07T07:30:42.959Z,81.20
2018-03-07T07:33:10.999Z,80.90
2018-03-07T07:35:39.058Z,78.10
2018-03-07T07:38:07.101Z,78.50
2018-03-07T07:40:35.159Z,78.70
2018-03-07T07:43:03.200Z,77.00
2018-03-07T07:45:31.250Z,77.40
2018-03-07T07:47:59.301Z,76.90
2018-03-07T07:50:27.353Z,76.60
2018-03-07T07:52:55.400Z,75.60
2018-03-07T07:55:23.448Z,74.90
2018-03-07T07:57:51.492Z,75.20
2018-03-07T08:00:19.558Z,74.70
2018-03-07T08:02:47.595Z,73.40
2018-03-07T08:05:15.653Z,73.50
2018-03-07T08:07:43.697Z,73.20
2018-03-07T08:10:11.749Z,72.70
2018-03-07T08:12:39.812Z,73.00
2018-03-07T08:15:07.868Z,72.30
2018-03-07T08:17:35.899Z,73.20
2018-03-07T08:20:03.951Z,73.60
2018-03-07T08:22:32.003Z,73.60
2018-03-07T08:25:00.058Z,73.50
2018-03-07T08:27:28.880Z,72.30
2018-03-07T08:29:56.934Z,72.20
2018-03-07T08:32:24.963Z,71.30
2018-03-07T08:34:53.028Z,70.60
2018-03-07T08:37:21.831Z,71.30
2018-03-07T08:39:49.892Z,71.30
2018-03-07T08:42:18.699Z,66.50
2018-03-07T08:44:47.517Z,66.10
2018-03-07T08:47:15.580Z,66.00
2018-03-07T08:49:44.397Z,63.70
2018-03-07T08:52:13.820Z,62.30
2018-03-07T08:54:42.623Z,61.90
2018-03-07T08:57:10.679Z,61.90
2018-03-07T08:59:39.497Z,61.70
2018-03-07T09:02:07.560Z,61.60
2018-03-07T09:04:36.379Z,61.50
2018-03-07T09:07:05.202Z,61.80
2018-03-07T09:09:33.260Z,61.80
2018-03-07T09:12:02.096Z,62.40
2018-03-07T09:14:30.144Z,62.40
2018-03-07T09:16:58.193Z,61.30
2018-03-07T09:19:26.244Z,61.70
2018-03-07T09:21:54.312Z,61.60
2018-03-07T09:24:22.354Z,61.10
2018-03-07T09:26:51.184Z,62.60
2018-03-07T09:29:19.231Z,62.20
2018-03-07T09:31:47.283Z,62.30
2018-03-07T09:34:15.377Z,61.70
2018-03-07T09:36:43.499Z,62.50
2018-03-07T09:39:12.316Z,61.90
2018-03-07T09:41:40.370Z,61.80
2018-03-07T09:44:08.420Z,61.60
2018-03-07T09:46:36.476Z,60.30
2018-03-07T09:49:04.519Z,59.70
2018-03-07T09:51:32.562Z,59.20
2018-03-07T09:54:00.624Z,58.70
2018-03-07T09:56:28.733Z,58.00
2018-03-07T09:58:56.754Z,57.50
2018-03-07T10:01:24.816Z,57.30
2018-03-07T10:03:52.859Z,57.70
2018-03-07T10:06:20.907Z,57.80
2018-03-07T10:08:49.728Z,58.50
2018-03-07T10:11:18.569Z,57.30
2018-03-07T10:13:46.843Z,57.20
2018-03-07T10:16:14.908Z,56.50
2018-03-07T10:18:43.700Z,56.10
2018-03-07T10:21:11.824Z,56.10
2018-03-07T10:23:39.896Z,55.80
2018-03-07T10:26:07.950Z,54.20
2018-03-07T10:28:37.008Z,53.40
2018-03-07T10:31:05.070Z,53.40
2018-03-07T10:33:33.226Z,52.60
2018-03-07T10:36:01.266Z,53.80
2018-03-07T10:38:29.400Z,55.00
2018-03-07T10:40:57.443Z,55.30
2018-03-07T10:43:25.496Z,55.70
2018-03-07T10:45:53.533Z,56.40
2018-03-07T10:48:22.348Z,57.10
2018-03-07T10:50:50.443Z,57.00
2018-03-07T10:53:18.528Z,56.20
2018-03-07T10:55:46.603Z,56.20
2018-03-07T10:58:14.623Z,56.10
2018-03-07T11:00:42.673Z,55.50
2018-03-07T11:03:10.715Z,54.70
2018-03-07T11:05:38.760Z,54.00
2018-03-07T11:08:06.821Z,53.70
2018-03-07T11:10:34.867Z,54.20
2018-03-07T11:13:03.093Z,53.90
2018-03-07T11:15:31.127Z,53.90
2018-03-07T11:17:59.167Z,53.30
2018-03-07T11:20:27.228Z,53.40
2018-03-07T11:22:56.033Z,53.90
2018-03-07T11:25:24.088Z,53.90
2018-03-07T11:27:52.133Z,54.10
2018-03-07T11:30:20.192Z,54.30
2018-03-07T11:32:48.231Z,54.70
2018-03-07T11:35:16.282Z,54.80
2018-03-07T11:37:44.320Z,54.20
2018-03-07T11:40:13.142Z,52.30
2018-03-07T11:42:41.184Z,52.20
2018-03-07T11:45:09.241Z,50.90
2018-03-07T11:47:37.309Z,51.00
2018-03-07T11:50:05.353Z,50.90
2018-03-07T11:52:33.404Z,51.20
2018-03-07T11:55:01.461Z,52.00
2018-03-07T11:57:29.504Z,52.50
2018-03-07T11:59:57.949Z,52.70
2018-03-07T12:02:26.059Z,53.20
2018-03-07T12:04:54.892Z,53.50
2018-03-07T12:07:22.964Z,53.40
2018-03-07T12:09:51.018Z,53.70
2018-03-07T12:12:19.059Z,54.00
2018-03-07T12:14:47.103Z,54.20
2018-03-07T12:17:15.914Z,54.80
2018-03-07T12:19:43.968Z,54.80
2018-03-07T12:22:12.020Z,54.40
2018-03-07T12:24:40.077Z,54.10
2018-03-07T12:27:08.114Z,53.70
2018-03-07T12:29:36.176Z,53.20
2018-03-07T12:32:04.258Z,51.70
2018-03-07T12:34:32.364Z,52.10
2018-03-07T12:37:00.482Z,52.20
2018-03-07T12:39:28.530Z,52.40
2018-03-07T12:41:56.596Z,52.00
2018-03-07T12:44:24.647Z,52.10
2018-03-07T12:46:52.695Z,52.40
2018-03-07T12:49:21.576Z,53.20
2018-03-07T12:51:50.337Z,53.10
2018-03-07T12:54:18.388Z,53.10
2018-03-07T12:56:47.217Z,52.80
2018-03-07T12:59:15.267Z,52.80
2018-03-07T13:01:44.101Z,52.10
2018-03-07T13:04:12.141Z,52.00
2018-03-07T13:06:40.201Z,52.20
2018-03-07T13:09:08.246Z,51.70
2018-03-07T13:11:36.295Z,50.30
2018-03-07T13:14:05.118Z,50.00
2018-03-07T13:16:33.163Z,50.00
2018-03-07T13:19:01.282Z,51.20
2018-03-07T13:21:29.334Z,50.80
2018-03-07T13:23:57.376Z,51.40
2018-03-07T13:28:59.864Z,51.50
2018-03-07T13:31:27.920Z,51.80
2018-03-07T13:33:55.973Z,51.70
2018-03-07T13:36:24.032Z,50.50
2018-03-07T13:38:52.082Z,50.20
2018-03-07T13:41:20.919Z,48.70
2018-03-07T13:43:48.974Z,49.20
2018-03-07T13:46:17.092Z,49.40
2018-03-07T13:48:45.230Z,49.30
2018-03-07T13:51:14.051Z,48.30
2018-03-07T13:53:42.094Z,48.20
2018-03-07T13:56:10.162Z,48.40
2018-03-07T13:58:38.217Z,50.10
2018-03-07T14:01:06.284Z,51.00
2018-03-07T14:03:34.340Z,51.40
2018-03-07T14:06:02.387Z,50.50
2018-03-07T14:08:30.503Z,50.40
2018-03-07T14:10:58.592Z,50.80
2018-03-07T14:13:26.643Z,51.20
2018-03-07T14:15:54.701Z,51.40
2018-03-07T14:18:22.767Z,51.60
2018-03-07T14:20:50.900Z,51.90
2018-03-07T14:23:18.993Z,52.10
2018-03-07T14:25:47.052Z,52.20
2018-03-07T14:28:15.102Z,52.30
2018-03-07T14:30:43.139Z,52.20
2018-03-07T14:33:11.205Z,52.10
2018-03-07T14:35:39.238Z,52.70
2018-03-07T14:38:08.064Z,53.00
2018-03-07T14:40:36.119Z,53.00
2018-03-07T14:43:04.932Z,52.50
2018-03-07T14:45:32.974Z,52.40
2018-03-07T14:48:01.041Z,52.10
2018-03-07T14:50:29.081Z,52.00
2018-03-07T14:52:57.139Z,52.30
2018-03-07T14:55:25.183Z,51.90
2018-03-07T14:57:53.247Z,52.30
2018-03-07T15:00:21.314Z,52.00
2018-03-07T15:02:49.379Z,52.20
2018-03-07T15:05:18.203Z,52.10
2018-03-07T15:07:47.023Z,52.30
2018-03-07T15:10:15.061Z,52.20
2018-03-07T15:12:43.109Z,53.30
2018-03-07T15:15:11.185Z,52.40
2018-03-07T15:17:39.235Z,52.70
2018-03-07T15:20:07.303Z,52.30
2018-03-07T15:22:36.125Z,52.70
2018-03-07T15:25:04.953Z,53.40
2018-03-07T15:27:33.039Z,53.40
2018-03-07T15:30:01.064Z,53.30
2018-03-07T15:32:29.099Z,53.80
2018-03-07T15:34:57.161Z,53.80
2018-03-07T15:37:25.202Z,53.00
2018-03-07T15:39:53.265Z,52.70
2018-03-07T15:42:21.303Z,52.20
2018-03-07T15:44:50.119Z,51.20
2018-03-07T15:47:18.163Z,51.20
2018-03-07T15:49:46.983Z,51.90
2018-03-07T15:52:15.789Z,52.40
2018-03-07T15:54:43.852Z,52.40
2018-03-07T15:57:12.674Z,53.10
2018-03-07T15:59:40.726Z,53.10
2018-03-07T16:02:09.635Z,52.90
2018-03-07T16:04:38.456Z,52.80
2018-03-07T16:07:06.575Z,52.80
2018-03-07T16:09:34.649Z,53.10
2018-03-07T16:12:02.699Z,53.40
2018-03-07T16:14:31.525Z,54.00
2018-03-07T16:16:59.622Z,54.00
2018-03-07T16:19:27.640Z,54.00
2018-03-07T16:21:55.692Z,53.90
2018-03-07T16:24:23.726Z,53.20
2018-03-07T16:26:52.552Z,52.90
2018-03-07T16:29:20.590Z,52.80
2018-03-07T16:31:48.654Z,53.10
2018-03-07T16:34:16.729Z,53.30
2018-03-07T16:36:44.772Z,54.00
2018-03-07T16:39:12.832Z,54.40
2018-03-07T16:41:41.659Z,54.80
2018-03-07T16:44:09.702Z,54.70
2018-03-07T16:46:37.771Z,55.00
2018-03-07T16:49:05.817Z,55.40
2018-03-07T16:51:33.870Z,55.30
2018-03-07T16:54:02.692Z,55.30
2018-03-07T16:56:30.759Z,55.30
2018-03-07T16:58:59.570Z,55.40
2018-03-07T17:01:27.629Z,55.30
2018-03-07T17:03:55.676Z,55.50
2018-03-07T17:06:23.845Z,55.70
2018-03-07T17:08:51.875Z,55.70
2018-03-07T17:11:20.016Z,56.10
2018-03-07T17:13:48.076Z,56.10
2018-03-07T17:16:16.127Z,56.10
2018-03-07T17:18:44.206Z,56.40
2018-03-07T17:21:12.255Z,56.70
2018-03-07T17:23:40.307Z,56.60
2018-03-07T17:26:08.356Z,56.50
2018-03-07T17:31:09.864Z,56.60
2018-03-07T17:33:38.689Z,57.00
2018-03-07T17:36:06.731Z,56.90
2018-03-07T17:38:34.789Z,57.10
2018-03-07T17:41:02.856Z,57.80
2018-03-07T17:43:30.900Z,59.90
2018-03-07T17:45:59.712Z,65.80
2018-03-07T17:48:27.763Z,65.70
2018-03-07T17:50:55.819Z,68.20
2018-03-07T17:53:23.879Z,68.50
2018-03-07T17:55:52.014Z,69.00
2018-03-07T17:58:20.081Z,68.40
2018-03-07T18:00:48.128Z,68.10
2018-03-07T18:03:16.199Z,68.90
2018-03-07T18:05:44.247Z,70.80
2018-03-07T18:08:12.300Z,68.10
2018-03-07T18:10:40.350Z,69.40
2018-03-07T18:13:08.404Z,67.40
2018-03-07T18:15:36.457Z,67.10
2018-03-07T18:18:04.523Z,67.00
2018-03-07T18:20:32.635Z,67.70
2018-03-07T18:23:00.725Z,67.00
2018-03-07T18:25:28.766Z,67.60
2018-03-07T18:27:56.845Z,68.30
2018-03-07T18:30:24.908Z,69.80
2018-03-07T18:32:53.738Z,69.30
2018-03-07T18:35:21.840Z,69.20
2018-03-07T18:37:49.881Z,69.10
2018-03-07T18:40:18.763Z,70.50
2018-03-07T18:42:47.584Z,71.20
2018-03-07T18:45:16.415Z,71.90
2018-03-07T18:47:44.502Z,71.90
2018-03-07T18:50:12.559Z,72.70
2018-03-07T18:52:40.612Z,73.10
2018-03-07T18:55:08.685Z,73.80
2018-03-07T18:57:36.785Z,73.90
2018-03-07T19:00:04.802Z,74.10
2018-03-07T19:02:32.888Z,74.20
2018-03-07T19:05:00.960Z,74.40
2018-03-07T19:07:29.029Z,74.50
2018-03-07T19:09:57.839Z,75.10
2018-03-07T19:12:25.960Z,75.10
2018-03-07T19:14:54.003Z,74.10
2018-03-07T19:17:22.830Z,73.50
2018-03-07T19:19:50.914Z,73.50
2018-03-07T19:22:19.044Z,73.20
2018-03-07T19:24:47.100Z,73.80
2018-03-07T19:27:15.152Z,73.70
2018-03-07T19:29:43.233Z,75.40
2018-03-07T19:32:11.272Z,75.20
2018-03-07T19:34:39.341Z,75.80
2018-03-07T19:37:07.405Z,76.30
2018-03-07T19:39:35.471Z,76.90
2018-03-07T19:42:03.566Z,76.30
2018-03-07T19:44:31.629Z,75.10
2018-03-07T19:46:59.675Z,75.60
2018-03-07T19:49:27.741Z,75.50
2018-03-07T19:51:55.802Z,75.70
2018-03-07T19:54:23.857Z,73.90
2018-03-07T19:56:51.900Z,76.50
2018-03-07T19:59:19.948Z,74.60
2018-03-07T20:01:49.011Z,73.20
2018-03-07T20:04:17.836Z,73.90
2018-03-07T20:06:45.876Z,73.90
2018-03-07T20:09:13.934Z,72.00
2018-03-07T20:11:42.004Z,72.50
2018-03-07T20:14:10.063Z,73.00
2018-03-07T20:16:38.118Z,72.90
2018-03-07T20:19:06.216Z,72.90
2018-03-07T20:21:35.031Z,72.60
2018-03-07T20:24:03.085Z,72.60
2018-03-07T20:26:31.131Z,72.30
2018-03-07T20:28:59.176Z,72.30
2018-03-07T20:31:27.231Z,72.50
2018-03-07T20:33:55.280Z,72.30
2018-03-07T20:36:23.355Z,72.90
2018-03-07T20:38:51.432Z,72.60
2018-03-07T20:41:19.596Z,72.80
2018-03-07T20:43:47.649Z,73.10
2018-03-07T20:46:15.706Z,74.40
2018-03-07T20:48:43.776Z,75.00
2018-03-07T20:51:11.832Z,75.40
2018-03-07T20:53:39.876Z,75.80
2018-03-07T20:56:07.923Z,76.20
2018-03-07T20:58:35.982Z,76.40
2018-03-07T21:01:04.791Z,76.80
2018-03-07T21:03:32.859Z,76.70
2018-03-07T21:06:01.684Z,76.30
2018-03-07T21:08:29.731Z,76.30
2018-03-07T21:10:58.572Z,76.30
2018-03-07T21:13:26.633Z,76.20
2018-03-07T21:15:54.678Z,76.00
2018-03-07T21:18:22.736Z,76.30
2018-03-07T21:20:50.780Z,76.00
2018-03-07T21:23:18.835Z,75.70
2018-03-07T21:25:46.888Z,75.70
2018-03-07T21:28:14.939Z,75.20
2018-03-07T21:30:42.983Z,75.40
2018-03-07T21:33:11.023Z,75.40
2018-03-07T21:35:39.063Z,75.60
2018-03-07T21:38:07.999Z,75.60
2018-03-07T21:40:36.059Z,75.50
2018-03-07T21:43:04.108Z,75.60
2018-03-07T21:45:32.162Z,75.60
2018-03-07T21:48:00.242Z,75.40
2018-03-07T21:50:28.315Z,75.30
2018-03-07T21:52:56.448Z,75.60
2018-03-07T21:55:24.496Z,75.70
2018-03-07T21:57:52.552Z,75.60
2018-03-07T22:00:20.603Z,75.30
2018-03-07T22:02:48.647Z,77.90
2018-03-07T22:05:16.751Z,79.30
2018-03-07T22:07:44.778Z,79.30
2018-03-07T22:10:13.583Z,79.20
2018-03-07T22:12:41.635Z,79.10
2018-03-07T22:15:10.294Z,79.40
2018-03-07T22:17:39.424Z,79.50
2018-03-07T22:20:07.478Z,79.90
2018-03-07T22:22:35.569Z,79.80
2018-03-07T22:25:03.593Z,81.70
2018-03-07T22:27:31.638Z,82.40
2018-03-07T22:30:00.619Z,83.40
2018-03-07T22:32:28.676Z,83.20
2018-03-07T22:34:57.844Z,83.90
2018-03-07T22:37:26.725Z,83.90
2018-03-07T22:39:54.800Z,83.20
2018-03-07T22:42:22.855Z,82.20
2018-03-07T22:44:51.081Z,81.50
2018-03-07T22:47:19.180Z,81.50
2018-03-07T22:49:47.940Z,81.70
2018-03-07T22:52:16.142Z,82.20
2018-03-07T22:54:44.174Z,81.70
2018-03-07T22:57:12.240Z,81.70
2018-03-07T22:59:40.285Z,81.50
2018-03-07T23:02:08.364Z,81.90
2018-03-07T23:04:36.490Z,81.30
2018-03-07T23:07:04.530Z,81.90
2018-03-07T23:09:32.592Z,81.50
2018-03-07T23:12:00.645Z,81.30
2018-03-07T23:14:28.888Z,81.60
2018-03-07T23:16:56.934Z,82.10
2018-03-07T23:19:25.004Z,81.50
2018-03-07T23:21:53.027Z,82.00
2018-03-07T23:24:21.081Z,81.00
2018-03-07T23:26:49.273Z,79.90
2018-03-07T23:29:19.901Z,80.30
2018-03-07T23:31:48.786Z,79.90
2018-03-07T23:34:17.074Z,79.90
2018-03-07T23:36:45.112Z,78.50
2018-03-07T23:39:13.182Z,79.50
2018-03-07T23:41:42.195Z,78.70
2018-03-07T23:44:11.004Z,77.40
2018-03-07T23:46:39.119Z,77.30
2018-03-07T23:49:07.170Z,77.20
2018-03-07T23:51:35.210Z,76.90
2018-03-07T23:54:03.255Z,76.00
2018-03-07T23:56:31.305Z,75.90
2018-03-07T23:59:00.178Z,76.60
